Time;durP1;ratioP1;P1;durP2;ratioP2;P2;SDS_P1;SDS_P2;PMS_P1;PMS_P2;Temp;Humidity;BMP_temperature;BMP_pressure;BME280_temperature;BME280_humidity;BME280_pressure;Samples;Min_cycle;Max_cycle;Signal;HPM_P1;HPM_P2
2022/11/19 00:01:03;;;;;;;19.80;9.43;;;;;;;2.88;51.25;101031.13;4961546;28;98920;-66
2022/11/19 00:03:33;;;;;;;17.33;9.23;;;;;;;2.59;51.88;101031.94;4967886;28;99142;-66
2022/11/19 00:06:05;;;;;;;14.80;8.63;;;;;;;2.84;51.49;101029.34;4968648;28;97287;-68
2022/11/19 00:08:32;;;;;;;20.58;10.27;;;;;;;2.98;51.24;101020.66;4970035;28;97133;-68
2022/11/19 00:11:04;;;;;;;20.50;9.27;;;;;;;3.12;50.34;101031.97;4963481;28;98959;-66
2022/11/19 00:13:30;;;;;;;15.48;9.05;;;;;;;3.32;49.55;101023.25;4964201;28;99175;-65
2022/11/19 00:16:01;;;;;;;19.65;9.98;;;;;;;3.16;50.08;101025.00;4965585;28;98544;-68
2022/11/19 00:18:28;;;;;;;21.15;9.85;;;;;;;3.30;49.77;101020.63;4966236;28;96756;-66
2022/11/19 00:20:55;;;;;;;19.88;10.48;;;;;;;3.28;49.98;101026.75;4964674;28;98741;-66
2022/11/19 00:23:23;;;;;;;18.08;9.32;;;;;;;3.28;49.20;101026.75;4969924;28;98135;-66
2022/11/19 00:25:49;;;;;;;22.63;10.80;;;;;;;3.06;49.96;101033.72;4967539;28;98872;-66
2022/11/19 00:28:16;;;;;;;19.48;10.05;;;;;;;3.00;50.04;101033.72;4962780;28;98853;-66
2022/11/19 00:30:43;;;;;;;19.02;9.85;;;;;;;2.86;50.18;101035.44;4967241;28;99348;-67
2022/11/19 00:33:12;;;;;;;20.98;10.43;;;;;;;2.90;50.51;101043.28;4964181;28;99433;-65
2022/11/19 00:35:38;;;;;;;17.73;8.95;;;;;;;2.57;51.20;101043.22;4958508;28;97399;-67
2022/11/19 00:38:05;;;;;;;21.17;10.07;;;;;;;2.66;51.79;101036.31;4970401;28;97662;-67
2022/11/19 00:40:32;;;;;;;16.67;9.45;;;;;;;2.74;51.52;101045.03;4967721;28;98980;-67
2022/11/19 00:45:43;;;;;;;19.42;8.82;;;;;;;2.93;51.08;101039.81;4962181;28;97484;-67
2022/11/19 00:48:10;;;;;;;24.65;9.52;;;;;;;2.87;51.74;101047.63;4963681;28;96964;-68
2022/11/19 00:50:37;;;;;;;20.45;9.45;;;;;;;2.75;52.04;101059.81;4961394;28;98879;-66
2022/11/19 00:53:03;;;;;;;15.88;9.02;;;;;;;2.87;51.86;101056.34;4962624;28;101552;-66
2022/11/19 00:55:29;;;;;;;16.35;9.15;;;;;;;3.12;50.77;101055.47;4963259;28;96968;-66
2022/11/19 00:57:57;;;;;;;17.08;9.43;;;;;;;3.24;49.69;101043.28;4964123;28;99223;-66
2022/11/19 01:00:24;;;;;;;18.48;9.23;;;;;;;3.03;50.85;101057.19;4962548;28;98870;-68
2022/11/19 01:02:50;;;;;;;18.58;9.10;;;;;;;2.82;51.47;101058.09;4962594;28;99076;-67
2022/11/19 01:05:17;;;;;;;16.92;8.73;;;;;;;2.70;51.47;101065.88;4963771;28;97749;-66
2022/11/19 01:07:43;;;;;;;16.73;9.27;;;;;;;2.64;51.88;101060.63;4967492;28;96878;-67
2022/11/19 01:10:10;;;;;;;19.33;9.02;;;;;;;2.63;51.74;101059.78;4967241;28;99100;-67
2022/11/19 01:13:33;;;;;;;17.50;8.27;;;;;;;2.67;51.08;101066.75;4970374;28;97618;-65
2022/11/19 01:15:24;;;;;;;;;;;;;;;2.78;50.95;101064.16;4968757;28;97145;-66
2022/11/19 01:17:51;;;;;;;14.80;8.30;;;;;;;2.83;50.82;101061.53;4973873;28;98731;-67
2022/11/19 01:20:17;;;;;;;19.02;9.15;;;;;;;2.88;51.32;101070.25;4970479;28;99080;-66
2022/11/19 01:22:45;;;;;;;18.35;8.73;;;;;;;2.92;51.47;101062.44;4974259;28;99280;-67
2022/11/19 01:25:13;;;;;;;18.33;8.40;;;;;;;2.91;51.10;101060.69;4970590;28;97297;-68
2022/11/19 01:27:39;;;;;;;15.48;8.68;;;;;;;2.88;50.86;101065.03;4968871;28;96829;-68
2022/11/19 01:30:07;;;;;;;17.40;9.43;;;;;;;2.79;51.00;101061.53;4972261;28;98713;-69
2022/11/19 01:32:35;;;;;;;16.15;8.57;;;;;;;2.92;51.27;101064.16;4973044;28;99207;-68
2022/11/19 01:35:04;;;;;;;17.20;9.88;;;;;;;2.95;51.16;101066.78;4971601;28;96945;-68
2022/11/19 01:37:31;;;;;;;19.90;9.52;;;;;;;3.05;51.17;101069.41;4970076;28;97149;-68
2022/11/19 01:39:57;;;;;;;19.85;8.95;;;;;;;3.39;49.82;101065.03;4968285;28;99328;-67
2022/11/19 01:45:18;;;;;;;17.38;8.95;;;;;;;3.48;49.40;101070.22;4966314;28;96909;-68
2022/11/19 01:47:46;;;;;;;16.02;9.35;;;;;;;3.50;49.48;101068.47;4968692;28;96843;-68
2022/11/19 01:50:12;;;;;;;17.05;9.65;;;;;;;3.29;49.54;101068.50;4965005;28;99925;-67
2022/11/19 01:52:39;;;;;;;17.02;9.20;;;;;;;3.40;49.01;101065.91;4968435;28;99296;-67
2022/11/19 01:55:08;;;;;;;18.02;9.40;;;;;;;3.24;49.81;101062.41;4966163;28;98432;-68
2022/11/19 01:57:38;;;;;;;20.88;8.85;;;;;;;3.47;49.15;101067.63;4967444;28;97687;-67
2022/11/19 02:00:07;;;;;;;21.38;9.93;;;;;;;3.40;49.05;101069.38;4967557;28;98915;-67
2022/11/19 02:02:34;;;;;;;18.90;9.77;;;;;;;3.42;48.84;101083.28;4964870;28;98909;-67
2022/11/19 02:05:02;;;;;;;21.15;9.88;;;;;;;3.38;49.22;101078.09;4966752;28;96699;-68
2022/11/19 02:07:33;;;;;;;23.02;10.30;;;;;;;3.39;49.73;101085.94;4971784;28;96935;-68
2022/11/19 02:10:02;;;;;;;20.35;10.32;;;;;;;3.44;49.52;101089.41;4960062;28;99269;-68
2022/11/19 02:12:41;;;;;;;18.17;9.43;;;;;;;3.38;49.15;101098.97;4969432;28;99850;-68
2022/11/19 02:15:17;;;;;;;19.95;9.23;;;;;;;3.50;48.98;101093.75;4968907;28;98649;-69
2022/11/19 02:18:20;;;;;;;18.20;9.38;;;;;;;3.37;49.46;101095.50;4968880;28;98690;-69
2022/11/19 02:20:59;;;;;;;16.65;9.48;;;;;;;3.15;49.47;101102.47;4961665;28;97624;-68
2022/11/19 02:23:49;;;;;;;15.88;8.70;;;;;;;2.73;51.02;101098.06;4966072;28;98739;-68
2022/11/19 02:26:35;;;;;;;18.30;9.32;;;;;;;2.39;51.92;101096.25;4968809;28;97214;-68
2022/11/19 02:29:15;;;;;;;16.92;8.93;;;;;;;2.38;52.73;101089.28;4965219;28;97509;-68
2022/11/19 02:31:49;;;;;;;15.63;8.75;;;;;;;2.32;53.15;101081.44;4972381;28;99564;-67
2022/11/19 02:34:21;;;;;;;17.67;9.00;;;;;;;2.21;53.59;101086.63;4967179;28;99338;-68
2022/11/19 02:36:56;;;;;;;17.10;9.05;;;;;;;2.16;53.58;101090.09;4970767;28;96793;-68
2022/11/19 02:39:29;;;;;;;15.23;8.77;;;;;;;2.04;53.40;101071.75;4968916;28;97461;-69
2022/11/19 02:42:04;;;;;;;16.77;9.05;;;;;;;1.97;53.61;101074.34;4965933;28;99783;-69
2022/11/19 02:47:26;;;;;;;14.88;8.48;;;;;;;1.96;53.83;101087.38;4965714;28;96839;-67
2022/11/19 02:49:59;;;;;;;15.88;8.48;;;;;;;2.10;53.68;101077.88;4967962;28;98411;-69
2022/11/19 02:52:28;;;;;;;21.45;9.23;;;;;;;1.99;53.98;101080.44;4970867;28;99539;-67
2022/11/19 02:54:55;;;;;;;16.98;8.80;;;;;;;1.95;54.25;101083.91;4967335;28;99938;-68
2022/11/19 02:57:21;;;;;;;19.05;9.60;;;;;;;2.07;53.79;101082.22;4968575;28;96920;-69
2022/11/19 03:05:32;;;;;;;16.35;8.25;;;;;;;2.34;52.91;101082.31;4922061;28;99023;-68
2022/11/19 03:08:02;;;;;;;14.55;7.18;;;;;;;2.56;51.89;101083.25;4967020;28;96809;-67
2022/11/19 03:10:36;;;;;;;13.40;7.50;;;;;;;2.71;51.15;101086.75;4970237;28;96881;-68
2022/11/19 03:16:40;;;;;;;12.73;7.07;;;;;;;2.57;51.10;101083.25;4966038;28;98996;-70
2022/11/19 03:18:49;;;;;;;18.55;7.60;;;;;;;2.21;52.05;101077.94;4962004;28;96879;-67
2022/11/19 03:21:24;;;;;;;14.10;7.90;;;;;;;2.19;52.64;101083.13;4967289;28;98947;-68
2022/11/19 03:23:57;;;;;;;16.27;8.23;;;;;;;2.03;53.79;101085.69;4968643;28;99129;-68
2022/11/19 03:26:29;;;;;;;14.07;7.53;;;;;;;2.10;53.55;101087.44;4971783;28;98905;-67
2022/11/19 03:29:00;;;;;;;17.88;7.82;;;;;;;2.24;52.84;101090.97;4969827;28;96780;-68
2022/11/19 03:31:30;;;;;;;15.15;7.90;;;;;;;2.30;53.16;101080.53;4971412;28;96786;-67
2022/11/19 03:34:02;;;;;;;29.70;10.18;;;;;;;2.25;53.57;101087.50;4964741;28;100161;-67
2022/11/19 03:36:32;;;;;;;15.68;9.00;;;;;;;2.21;53.77;101083.13;4969766;28;98704;-67
2022/11/19 03:39:03;;;;;;;19.73;8.90;;;;;;;2.24;53.61;101090.97;4963791;28;96804;-67
2022/11/19 03:41:33;;;;;;;20.83;9.45;;;;;;;2.20;53.35;101102.25;4966387;28;98620;-67
2022/11/19 03:44:06;;;;;;;17.52;8.57;;;;;;;2.25;53.88;101103.13;4969164;28;98935;-67
2022/11/19 03:46:37;;;;;;;18.77;8.98;;;;;;;2.61;52.75;101098.06;4966825;28;98839;-68
2022/11/19 03:49:09;;;;;;;14.95;8.30;;;;;;;2.53;52.78;101104.09;4966940;28;96824;-67
2022/11/19 03:51:41;;;;;;;20.75;9.20;;;;;;;2.42;53.12;101106.69;4969823;28;96890;-68
2022/11/19 03:54:08;;;;;;;16.98;8.05;;;;;;;2.50;52.89;101107.56;4964698;28;98870;-67
2022/11/19 03:56:39;;;;;;;18.65;9.10;;;;;;;2.46;52.91;101113.66;4966327;28;100104;-67
2022/11/19 03:59:06;;;;;;;15.10;8.15;;;;;;;2.44;52.95;101109.28;4959934;28;97226;-68
2022/11/19 04:01:34;;;;;;;21.02;9.80;;;;;;;2.16;53.85;101103.13;4965048;28;97771;-67
2022/11/19 04:06:54;;;;;;;14.35;7.57;;;;;;;1.99;54.58;101111.72;4918107;28;97435;-68
2022/11/19 04:09:21;;;;;;;18.88;8.05;;;;;;;2.11;54.79;101115.22;4969628;28;97837;-66
2022/11/19 04:11:50;;;;;;;18.58;8.48;;;;;;;2.14;54.05;101112.66;4968091;28;98455;-67
2022/11/19 04:14:17;;;;;;;17.48;8.13;;;;;;;2.13;54.09;101117.00;4967744;28;98026;-67
2022/11/19 04:16:43;;;;;;;18.50;8.88;;;;;;;2.06;54.16;101109.13;4967285;28;99753;-67
2022/11/19 04:19:09;;;;;;;19.00;8.80;;;;;;;1.83;54.60;101115.13;4963352;28;96875;-67
2022/11/19 04:21:36;;;;;;;19.48;8.63;;;;;;;1.82;54.77;101113.38;4967921;28;97105;-69
2022/11/19 04:24:05;;;;;;;22.80;8.48;;;;;;;1.94;54.57;101107.34;4964576;28;98878;-67
2022/11/19 04:26:31;;;;;;;15.82;7.50;;;;;;;2.06;54.19;101111.75;4968395;28;99249;-68
2022/11/19 04:28:58;;;;;;;16.40;8.32;;;;;;;1.94;54.27;101109.94;4966752;28;96867;-67
2022/11/19 04:31:24;;;;;;;15.93;7.32;;;;;;;2.04;53.95;101103.91;4968042;28;96795;-67
2022/11/19 04:33:50;;;;;;;16.48;8.32;;;;;;;2.18;53.83;101104.84;4964954;28;99955;-67
2022/11/19 04:36:20;;;;;;;15.05;8.45;;;;;;;1.94;54.77;101103.00;4968573;28;99535;-68
2022/11/19 04:38:46;;;;;;;17.75;7.72;;;;;;;2.13;54.03;101108.31;4965729;28;98869;-68
2022/11/19 04:41:14;;;;;;;14.40;7.85;;;;;;;2.17;54.05;101110.91;4966793;28;97786;-68
2022/11/19 04:43:41;;;;;;;22.92;8.18;;;;;;;2.18;54.16;101107.44;4969306;28;97781;-68
2022/11/19 04:46:07;;;;;;;15.75;8.13;;;;;;;2.14;54.27;101105.72;4972524;28;101152;-67
2022/11/19 04:48:34;;;;;;;18.02;8.25;;;;;;;2.21;54.11;101099.66;4965375;28;98593;-67
2022/11/19 04:51:00;;;;;;;15.35;7.95;;;;;;;2.09;54.20;101098.75;4965644;28;96917;-67
2022/11/19 04:53:27;;;;;;;17.45;8.13;;;;;;;2.14;53.96;101100.50;4969808;28;99060;-67
2022/11/19 04:55:53;;;;;;;15.07;7.90;;;;;;;2.08;54.12;101094.38;4972532;28;98860;-67
2022/11/19 04:58:21;;;;;;;13.98;7.60;;;;;;;2.25;53.68;101097.91;4967945;28;97663;-67
2022/11/19 05:00:48;;;;;;;11.93;6.72;;;;;;;2.32;53.19;101094.47;4965596;28;98087;-66
2022/11/19 05:03:15;;;;;;;9.98;6.18;;;;;;;2.03;53.53;101085.69;4963300;28;99479;-68
2022/11/19 05:05:41;;;;;;;14.65;6.35;;;;;;;1.90;53.72;101093.41;4967824;28;98958;-68
2022/11/19 05:08:08;;;;;;;16.38;7.10;;;;;;;2.04;53.82;101090.00;4971396;28;98563;-68
2022/11/19 05:10:34;;;;;;;13.65;6.35;;;;;;;2.18;53.25;101091.81;4968100;28;96926;-67
2022/11/19 05:13:01;;;;;;;13.98;6.78;;;;;;;2.12;53.12;101086.56;4969646;28;97826;-68
2022/11/19 05:15:28;;;;;;;10.57;5.90;;;;;;;2.07;53.48;101084.81;4969841;28;99158;-68
2022/11/19 05:17:55;;;;;;;16.48;7.55;;;;;;;2.08;53.70;101083.94;4969588;28;96938;-68
2022/11/19 05:20:21;;;;;;;15.15;6.82;;;;;;;2.20;53.36;101087.47;4965601;28;97197;-67
2022/11/19 05:22:48;;;;;;;12.63;6.72;;;;;;;2.19;52.98;101082.25;4972045;28;99038;-67
2022/11/19 05:25:14;;;;;;;12.13;6.40;;;;;;;2.17;52.89;101073.53;4968420;28;99048;-68
2022/11/19 05:27:40;;;;;;;14.45;7.28;;;;;;;2.19;52.97;101072.69;4969789;28;96921;-68
2022/11/19 05:30:09;;;;;;;12.80;6.93;;;;;;;2.30;52.94;101078.81;4966205;28;98431;-69
2022/11/19 05:32:37;;;;;;;11.40;6.32;;;;;;;2.25;53.22;101074.44;4971081;28;98145;-67
2022/11/19 05:35:04;;;;;;;14.75;7.65;;;;;;;2.32;52.56;101076.22;4970392;28;98076;-68
2022/11/19 05:37:30;;;;;;;10.38;6.22;;;;;;;2.35;52.35;101077.13;4973439;28;96734;-67
2022/11/19 05:39:57;;;;;;;11.45;6.45;;;;;;;2.26;52.69;101078.81;4966498;28;96912;-69
2022/11/19 05:42:23;;;;;;;10.40;6.50;;;;;;;2.30;52.27;101076.22;4960002;28;98206;-68
2022/11/19 05:44:50;;;;;;;13.35;6.28;;;;;;;2.31;52.08;101077.06;4970166;28;99221;-68
2022/11/19 05:47:17;;;;;;;12.35;6.65;;;;;;;2.28;52.04;101074.47;4963994;28;97623;-67
2022/11/19 05:49:45;;;;;;;11.80;6.55;;;;;;;2.56;51.40;101073.66;4967750;28;96842;-67
2022/11/19 05:52:12;;;;;;;12.52;6.82;;;;;;;2.41;51.46;101073.66;4970952;28;98935;-67
2022/11/19 05:54:38;;;;;;;13.85;6.65;;;;;;;2.68;51.60;101073.72;4967155;28;98796;-68
2022/11/19 05:57:05;;;;;;;17.02;7.35;;;;;;;2.61;51.67;101077.19;4965861;28;100766;-69
2022/11/19 05:59:32;;;;;;;12.45;6.72;;;;;;;2.28;52.20;101074.47;4971700;28;98467;-68
2022/11/19 06:01:58;;;;;;;13.93;7.38;;;;;;;2.52;52.03;101082.38;4967768;28;97744;-68
2022/11/19 06:04:25;;;;;;;10.93;6.80;;;;;;;2.42;51.84;101088.44;4967699;28;98824;-68
2022/11/19 06:06:52;;;;;;;11.32;6.20;;;;;;;2.36;51.92;101083.19;4961919;28;99292;-68
2022/11/19 06:09:19;;;;;;;14.00;7.10;;;;;;;2.39;51.74;101075.38;4971595;28;97422;-67
2022/11/19 06:11:49;;;;;;;10.55;6.22;;;;;;;2.32;51.06;101090.13;4967929;28;98980;-69
2022/11/19 06:14:16;;;;;;;12.88;6.50;;;;;;;2.19;51.20;101090.94;4968584;28;99168;-67
2022/11/19 06:16:42;;;;;;;13.55;6.40;;;;;;;2.40;51.38;101090.16;4966182;28;97150;-67
2022/11/19 06:19:09;;;;;;;14.77;7.20;;;;;;;2.37;52.05;101095.34;4967947;28;96946;-67
2022/11/19 06:21:36;;;;;;;13.88;7.10;;;;;;;2.13;52.62;101092.66;4965804;28;99096;-67
2022/11/19 06:24:04;;;;;;;14.20;7.10;;;;;;;1.97;53.57;101087.38;4971388;28;98878;-67
2022/11/19 06:26:30;;;;;;;10.68;6.55;;;;;;;2.23;53.21;101081.41;4967357;28;96992;-67
2022/11/19 06:28:56;;;;;;;14.95;7.47;;;;;;;2.12;52.86;101078.75;4966714;28;99112;-67
2022/11/19 06:31:23;;;;;;;11.85;6.63;;;;;;;2.18;52.49;101090.94;4964796;28;99252;-68
2022/11/19 06:33:52;;;;;;;11.70;6.28;;;;;;;2.28;51.59;101077.09;4963993;28;101046;-66
2022/11/19 06:36:19;;;;;;;13.85;6.65;;;;;;;2.20;51.49;101090.09;4963532;28;98960;-68
2022/11/19 06:38:45;;;;;;;11.90;6.38;;;;;;;2.36;51.25;101094.47;4963168;28;97817;-69
2022/11/19 06:41:13;;;;;;;11.00;6.45;;;;;;;2.26;51.04;101078.81;4967166;28;98979;-67
2022/11/19 06:43:40;;;;;;;12.57;6.43;;;;;;;2.28;51.15;101082.31;4966994;28;98263;-69
2022/11/19 06:46:06;;;;;;;10.90;6.25;;;;;;;2.26;50.79;101078.81;4967959;28;96804;-68
2022/11/19 06:48:33;;;;;;;14.50;6.63;;;;;;;2.30;51.61;101072.72;4966514;28;96901;-68
2022/11/19 06:51:00;;;;;;;11.40;6.07;;;;;;;2.24;51.89;101080.53;4965256;28;99022;-68
2022/11/19 06:53:27;;;;;;;13.65;6.63;;;;;;;2.16;51.38;101084.88;4970480;28;99136;-67
2022/11/19 06:55:56;;;;;;;11.48;5.82;;;;;;;2.24;50.87;101088.34;4963981;28;96890;-67
2022/11/19 06:58:24;;;;;;;9.32;5.55;;;;;;;2.21;50.62;101089.22;4965451;28;98779;-67
2022/11/19 07:00:51;;;;;;;13.00;6.20;;;;;;;2.32;50.67;101084.03;4961937;28;98864;-67
2022/11/19 07:03:17;;;;;;;11.10;6.40;;;;;;;2.46;51.22;101084.97;4965713;28;99520;-67
2022/11/19 07:05:44;;;;;;;11.40;5.82;;;;;;;2.54;50.36;101083.25;4959273;28;96880;-67
2022/11/19 07:08:11;;;;;;;8.70;5.40;;;;;;;2.66;50.15;101085.88;4962703;28;98899;-67
2022/11/19 07:10:37;;;;;;;11.23;6.28;;;;;;;2.67;49.94;101092.84;4960637;28;99840;-67
2022/11/19 07:13:04;;;;;;;15.52;6.50;;;;;;;2.68;49.79;101097.19;4963810;28;98954;-68
2022/11/19 07:15:31;;;;;;;10.75;5.95;;;;;;;2.72;49.80;101096.31;4962731;28;97687;-67
2022/11/19 07:17:58;;;;;;;11.18;5.65;;;;;;;2.78;49.82;101096.34;4961424;28;99260;-68
2022/11/19 07:20:25;;;;;;;11.25;5.70;;;;;;;2.84;49.39;101092.00;4964593;28;98794;-68
2022/11/19 07:22:51;;;;;;;9.43;5.13;;;;;;;2.74;49.83;101089.38;4963556;28;99806;-67
2022/11/19 07:25:19;;;;;;;11.45;5.93;;;;;;;2.83;49.85;101085.03;4960422;28;97718;-68
2022/11/19 07:27:46;;;;;;;11.20;5.68;;;;;;;2.68;50.12;101081.53;4965814;28;97173;-68
2022/11/19 07:30:13;;;;;;;10.20;5.53;;;;;;;2.78;49.44;101083.28;4964649;28;98536;-69
2022/11/19 07:32:41;;;;;;;11.68;4.93;;;;;;;2.80;49.43;101073.72;4961756;28;98999;-67
2022/11/19 07:35:09;;;;;;;9.45;5.07;;;;;;;3.04;48.48;101079.81;4961945;28;99229;-68
2022/11/19 07:37:35;;;;;;;9.18;5.40;;;;;;;3.12;48.38;101086.81;4961633;28;96832;-70
2022/11/19 07:40:02;;;;;;;9.15;5.40;;;;;;;3.03;48.23;101092.00;4965501;28;98998;-67
2022/11/19 07:45:13;;;;;;;9.20;4.60;;;;;;;3.52;47.40;101081.56;4966485;28;97329;-69
2022/11/19 07:47:41;;;;;;;9.73;5.07;;;;;;;3.75;47.11;101079.75;4964787;28;97044;-69
2022/11/19 07:50:08;;;;;;;10.05;4.88;;;;;;;3.80;46.80;101080.63;4963657;28;100680;-69
2022/11/19 07:52:35;;;;;;;8.40;4.65;;;;;;;3.73;46.92;101085.88;4961686;28;98950;-68
2022/11/19 07:55:01;;;;;;;8.05;4.90;;;;;;;3.85;46.64;101080.63;4961251;28;97890;-70
2022/11/19 07:57:28;;;;;;;8.65;4.85;;;;;;;3.87;47.08;101079.72;4966534;28;96807;-67
2022/11/19 07:59:56;;;;;;;9.38;4.88;;;;;;;3.89;46.04;101077.09;4957901;28;98823;-69
2022/11/19 08:02:26;;;;;;;7.80;4.50;;;;;;;3.79;47.09;101072.78;4959932;28;99823;-69
2022/11/19 08:04:54;;;;;;;8.75;4.78;;;;;;;4.06;46.47;101066.59;4962371;28;96842;-69
2022/11/19 08:07:21;;;;;;;10.13;4.55;;;;;;;4.18;45.49;101070.03;4958539;28;98660;-68
2022/11/19 08:09:48;;;;;;;8.63;5.22;;;;;;;4.21;45.08;101067.38;4958534;28;99001;-72
2022/11/19 08:12:15;;;;;;;11.65;4.68;;;;;;;4.42;44.99;101066.41;4960173;28;100458;-68
2022/11/19 08:14:41;;;;;;;8.02;4.40;;;;;;;4.41;44.84;101059.44;4960905;28;98551;-68
2022/11/19 08:19:53;;;;;;;7.55;4.07;;;;;;;4.36;44.39;101050.75;4972210;28;97140;-69
2022/11/19 08:22:21;;;;;;;11.18;4.20;;;;;;;4.33;44.54;101042.94;4971740;28;98811;-69
2022/11/19 08:24:47;;;;;;;8.60;4.43;;;;;;;4.45;44.44;101044.63;4967776;28;97039;-67
2022/11/19 08:27:13;;;;;;;8.23;4.03;;;;;;;4.37;44.96;101040.28;4973974;28;96833;-69
2022/11/19 08:29:40;;;;;;;7.30;3.90;;;;;;;4.45;44.35;101042.00;4970329;28;98954;-68
2022/11/19 08:32:06;;;;;;;6.93;3.85;;;;;;;4.63;43.90;101041.88;4970833;28;99441;-69
2022/11/19 08:34:33;;;;;;;6.78;3.50;;;;;;;4.77;42.71;101037.41;4967784;28;97759;-66
2022/11/19 08:37:00;;;;;;;10.10;4.20;;;;;;;4.55;43.60;101038.44;4969885;28;98505;-69
2022/11/19 08:39:27;;;;;;;5.45;3.65;;;;;;;4.70;43.29;101041.81;4966493;28;99388;-68
2022/11/19 08:44:38;;;;;;;8.35;5.15;;;;;;;4.90;43.01;101041.69;4966387;28;97085;-68
2022/11/19 08:47:04;;;;;;;9.70;5.07;;;;;;;4.77;42.64;101040.03;4964244;28;97103;-69
2022/11/19 08:49:31;;;;;;;7.32;4.45;;;;;;;4.72;42.88;101034.84;4963883;28;101541;-69
2022/11/19 08:51:58;;;;;;;9.57;4.65;;;;;;;4.68;42.74;101032.22;4970670;28;98876;-68
2022/11/19 08:54:27;;;;;;;7.28;4.25;;;;;;;5.00;42.69;101026.75;4968060;28;96699;-68
2022/11/19 08:56:53;;;;;;;6.38;3.40;;;;;;;5.22;42.12;101030.94;4970700;28;96832;-68
2022/11/19 08:59:21;;;;;;;4.85;3.60;;;;;;;4.85;42.62;101030.38;4963316;28;99364;-71
2022/11/19 09:01:48;;;;;;;4.88;3.40;;;;;;;4.96;42.17;101035.53;4972180;28;97285;-68
2022/11/19 09:04:17;;;;;;;7.38;3.72;;;;;;;4.54;42.66;101034.06;4970980;28;96762;-68
2022/11/19 09:06:44;;;;;;;5.97;3.85;;;;;;;4.87;42.75;101035.59;4973646;28;96867;-68
2022/11/19 09:09:10;;;;;;;7.32;3.65;;;;;;;4.96;42.57;101028.53;4972005;28;99172;-68
2022/11/19 09:11:38;;;;;;;6.43;3.65;;;;;;;5.03;41.32;101034.59;4973382;28;99268;-67
2022/11/19 09:14:05;;;;;;;5.38;3.05;;;;;;;4.97;41.78;101032.03;4967279;28;96784;-68
2022/11/19 09:16:31;;;;;;;4.65;2.55;;;;;;;5.00;42.13;101032.00;4972064;28;97069;-68
2022/11/19 09:19:00;;;;;;;6.50;3.20;;;;;;;5.03;41.53;101035.47;4967765;28;99033;-68
2022/11/19 09:21:26;;;;;;;5.32;3.00;;;;;;;4.88;41.63;101043.44;4969311;28;98914;-68
2022/11/19 09:23:53;;;;;;;4.63;3.05;;;;;;;5.38;41.67;101050.84;4968675;28;96854;-68
2022/11/19 09:26:20;;;;;;;6.07;3.10;;;;;;;5.42;41.32;101042.09;4974009;28;96777;-68
2022/11/19 09:28:48;;;;;;;6.22;3.45;;;;;;;5.52;40.61;101040.25;4970210;28;99692;-69
2022/11/19 09:31:17;;;;;;;5.82;3.67;;;;;;;5.48;40.75;101041.16;4970979;28;101467;-69
2022/11/19 09:33:46;;;;;;;4.97;3.08;;;;;;;5.30;41.35;101049.22;4967090;28;97564;-68
2022/11/19 09:36:14;;;;;;;4.70;3.15;;;;;;;5.30;41.82;101051.81;4974820;28;97068;-68
2022/11/19 09:38:41;;;;;;;6.10;3.22;;;;;;;5.18;41.80;101043.22;4973177;28;98224;-69
2022/11/19 09:41:42;;;;;;;4.25;3.22;;;;;;;4.91;43.08;101046.03;4966396;28;98932;-69
2022/11/19 09:44:36;;;;;;;6.32;3.38;;;;;;;5.56;41.85;101045.44;4967735;28;96881;-68
2022/11/19 09:47:12;;;;;;;6.18;3.50;;;;;;;5.76;41.51;101037.38;4967469;28;96830;-68
2022/11/19 09:49:45;;;;;;;10.35;3.00;;;;;;;5.99;40.27;101032.75;4965470;28;98596;-69
2022/11/19 09:52:16;;;;;;;5.05;2.53;;;;;;;5.72;40.21;101019.06;4967956;28;99415;-70
2022/11/19 09:54:48;;;;;;;4.35;3.15;;;;;;;5.73;40.09;101026.91;4972961;28;97388;-68
2022/11/19 09:57:20;;;;;;;4.60;3.35;;;;;;;5.69;40.54;101024.34;4969196;28;96693;-70
2022/11/19 09:59:51;;;;;;;6.05;2.75;;;;;;;5.84;39.85;101019.78;4965387;28;99264;-68
2022/11/19 10:02:20;;;;;;;3.60;2.58;;;;;;;5.59;39.81;101023.56;4972941;28;98906;-70
2022/11/19 10:04:48;;;;;;;3.90;2.58;;;;;;;5.55;40.01;101011.38;4969704;28;96934;-68
2022/11/19 10:07:29;;;;;;;4.40;2.85;;;;;;;5.89;39.51;101011.91;4971357;28;97184;-68
2022/11/19 10:10:07;;;;;;;6.30;2.45;;;;;;;5.83;39.09;101011.94;4965469;28;98939;-67
2022/11/19 10:12:53;;;;;;;4.25;2.60;;;;;;;5.32;40.30;101013.34;4968407;28;98168;-68
2022/11/19 10:15:28;;;;;;;3.85;2.33;;;;;;;4.92;40.31;101003.28;4967584;28;96832;-68
2022/11/19 10:18:08;;;;;;;3.50;2.47;;;;;;;5.15;40.32;100998.69;4970892;28;97799;-68
2022/11/19 10:20:49;;;;;;;3.97;2.30;;;;;;;5.38;40.32;100997.59;4967473;28;99954;-69
2022/11/19 10:23:18;;;;;;;3.70;2.45;;;;;;;4.91;40.31;100998.03;4966595;28;99266;-68
2022/11/19 10:25:46;;;;;;;4.85;2.63;;;;;;;5.43;39.93;101001.91;4967033;28;96787;-68
2022/11/19 10:28:17;;;;;;;4.07;2.70;;;;;;;5.78;38.89;100996.25;4969421;28;97476;-69
2022/11/19 10:30:49;;;;;;;3.55;2.55;;;;;;;5.66;39.31;100999.03;4963655;28;98805;-68
2022/11/19 10:33:23;;;;;;;6.75;4.10;;;;;;;5.70;39.27;100995.50;4971816;28;99248;-68
2022/11/19 10:35:55;;;;;;;4.35;2.55;;;;;;;5.54;39.44;100993.91;4970652;28;97015;-68
2022/11/19 10:38:29;;;;;;;3.03;2.35;;;;;;;5.78;39.36;100991.00;4968061;28;96797;-69
2022/11/19 10:40:59;;;;;;;4.72;2.75;;;;;;;5.70;39.07;100986.75;4968844;28;101355;-68
2022/11/19 10:43:32;;;;;;;4.88;2.42;;;;;;;5.65;39.80;100971.06;4967109;28;98903;-68
2022/11/19 10:46:02;;;;;;;4.28;2.97;;;;;;;5.38;40.54;100976.63;4970222;28;97119;-69
2022/11/19 10:48:39;;;;;;;4.20;2.78;;;;;;;5.77;39.95;100964.81;4971914;28;97543;-69
2022/11/19 10:51:13;;;;;;;4.20;2.45;;;;;;;5.85;39.31;100962.94;4968666;28;99117;-68
2022/11/19 10:53:41;;;;;;;3.60;2.58;;;;;;;5.75;39.42;100967.47;4964871;28;99404;-68
2022/11/19 10:56:13;;;;;;;5.32;2.78;;;;;;;6.20;38.87;100963.38;4965012;28;96865;-71
2022/11/19 10:58:44;;;;;;;4.72;2.90;;;;;;;6.11;38.95;100957.38;4968413;28;96750;-67
2022/11/19 11:01:18;;;;;;;5.53;2.90;;;;;;;6.40;38.59;100947.34;4968553;28;99049;-66
2022/11/19 11:03:49;;;;;;;4.32;2.42;;;;;;;6.44;38.67;100946.41;4969570;28;98862;-68
2022/11/19 11:06:15;;;;;;;7.22;2.80;;;;;;;6.43;38.86;100944.69;4970645;28;97053;-69
2022/11/19 11:08:51;;;;;;;6.88;4.28;;;;;;;6.21;38.93;100945.88;4970844;28;96937;-67
2022/11/19 11:14:50;;;;;;;8.55;3.13;;;;;;;6.43;39.20;100942.06;4965527;28;98930;-65
2022/11/19 11:16:59;;;;;;;6.03;3.53;;;;;;;6.11;40.25;100947.75;4965388;28;96715;-68
2022/11/19 11:19:26;;;;;;;10.05;3.90;;;;;;;6.03;41.24;100946.16;4967797;28;97018;-68
2022/11/19 11:21:55;;;;;;;5.47;3.35;;;;;;;5.94;41.36;100940.13;4962046;28;98120;-66
2022/11/19 11:24:41;;;;;;;7.05;3.92;;;;;;;5.43;42.92;100927.66;4968289;28;98938;-67
2022/11/19 11:27:19;;;;;;;8.48;5.00;;;;;;;5.59;43.75;100929.19;4963671;28;98561;-67
2022/11/19 11:29:46;;;;;;;11.27;4.18;;;;;;;5.67;43.73;100929.09;4966686;28;97162;-68
2022/11/19 11:32:29;;;;;;;5.95;3.70;;;;;;;5.69;43.54;100915.09;4970339;28;100856;-66
2022/11/19 11:34:56;;;;;;;5.43;3.30;;;;;;;5.68;43.81;100908.13;4966218;28;99049;-68
2022/11/19 11:37:25;;;;;;;6.50;4.00;;;;;;;5.75;44.31;100915.00;4972868;28;96865;-65
2022/11/19 11:39:55;;;;;;;8.65;4.20;;;;;;;5.63;44.69;100915.19;4965657;28;96920;-66
2022/11/19 11:42:32;;;;;;;7.10;4.30;;;;;;;5.24;45.33;100913.91;4972064;28;98913;-66
2022/11/19 11:45:01;;;;;;;6.80;4.32;;;;;;;5.79;45.05;100905.34;4968700;28;98868;-69
2022/11/19 11:47:35;;;;;;;7.80;4.40;;;;;;;6.05;44.40;100892.75;4972472;28;96715;-68
2022/11/19 11:50:08;;;;;;;8.73;4.50;;;;;;;6.07;44.25;100895.38;4970218;28;101203;-69
2022/11/19 11:52:39;;;;;;;7.78;4.22;;;;;;;6.40;43.80;100894.84;4973782;28;99188;-67
2022/11/19 11:55:12;;;;;;;6.78;4.22;;;;;;;6.27;44.15;100894.19;4969491;28;99397;-69
2022/11/19 11:57:53;;;;;;;6.85;4.05;;;;;;;6.43;43.84;100904.44;4970298;28;96934;-69
2022/11/19 12:00:35;;;;;;;8.20;4.60;;;;;;;6.18;44.56;100909.19;4968670;28;96712;-70
2022/11/19 12:03:05;;;;;;;8.27;4.75;;;;;;;6.13;44.54;100911.88;4969678;28;98120;-69
2022/11/19 12:05:43;;;;;;;7.90;4.40;;;;;;;6.06;45.01;100899.75;4966204;28;97663;-68
2022/11/19 12:08:23;;;;;;;7.45;4.82;;;;;;;5.56;46.85;100908.28;4964299;28;96812;-68